Terminal Aerodrome Forecast
Issued by NWS El Paso, TX

Home | Current Version | Previous Version | Text Only | Print | Product List | Glossary On
Versions: 1 2 3 4 5 6 7 8 9 10 11 12
000
FTUS44 KEPZ 040500
TAFELP
TAF
KELP 040537Z 0406/0506 29011KT P6SM SCT120
     FM042000 19012G20KT P6SM SCT090
     FM042300 21014G25KT P6SM VCSH SCT100=

USA.gov is the U.S. government's official web portal to all federal, state and local government web resources and services.